createdAt,value
2018-06-03T00:01:17.344Z,98419.67
2018-06-03T00:03:46.365Z,98415.10
2018-06-03T00:06:14.627Z,98414.69
2018-06-03T00:08:43.649Z,98419.22
2018-06-03T00:11:11.893Z,98412.69
2018-06-03T00:13:40.917Z,98412.77
2018-06-03T00:16:09.164Z,98416.27
2018-06-03T00:18:38.184Z,98411.94
2018-06-03T00:21:35.066Z,98414.52
2018-06-03T00:24:04.093Z,98410.48
2018-06-03T00:26:33.111Z,98402.38
2018-06-03T00:29:01.369Z,98403.59
2018-06-03T00:31:29.626Z,98407.63
2018-06-03T00:33:57.876Z,98412.75
2018-06-03T00:36:43.133Z,98404.20
2018-06-03T00:39:11.380Z,98406.50
2018-06-03T00:41:39.629Z,98406.20
2018-06-03T00:44:08.650Z,98401.58
2018-06-03T00:46:36.897Z,98398.77
2018-06-03T00:49:05.922Z,98400.00
2018-06-03T00:51:34.164Z,98404.77
2018-06-03T00:54:03.190Z,98402.23
2018-06-03T00:56:49.110Z,98407.42
2018-06-03T00:59:17.371Z,98402.55
2018-06-03T01:01:45.608Z,98398.28
2018-06-03T01:04:14.629Z,98403.83
2018-06-03T01:06:42.874Z,98403.75
2018-06-03T01:09:11.894Z,98399.94
2018-06-03T01:11:40.145Z,98403.08
2018-06-03T01:14:11.004Z,98398.70
2018-06-03T01:16:39.992Z,98399.09
2018-06-03T01:19:08.252Z,98398.08
2018-06-03T01:21:36.505Z,98395.89
2018-06-03T01:24:04.758Z,98399.73
2018-06-03T01:26:33.014Z,98398.98
2018-06-03T01:29:01.257Z,98401.66
2018-06-03T01:31:29.508Z,98396.28
2018-06-03T01:33:57.761Z,98392.48
2018-06-03T01:36:26.021Z,98386.98
2018-06-03T01:38:54.264Z,98384.39
2018-06-03T01:41:22.527Z,98378.81
2018-06-03T01:43:51.542Z,98372.53
2018-06-03T01:46:19.798Z,98375.88
2018-06-03T01:48:48.806Z,98373.12
2018-06-03T01:51:17.057Z,98372.53
2018-06-03T01:53:46.072Z,98368.13
2018-06-03T01:56:14.333Z,98365.33
2018-06-03T01:58:43.352Z,98373.41
2018-06-03T02:01:11.619Z,98366.50
2018-06-03T02:03:39.865Z,98377.66
2018-06-03T02:06:09.414Z,98370.91
2018-06-03T02:08:37.656Z,98372.93
2018-06-03T02:11:06.670Z,98371.66
2018-06-03T02:13:34.938Z,98369.64
2018-06-03T02:16:03.185Z,98370.94
2018-06-03T02:18:31.438Z,98361.45
2018-06-03T02:20:59.689Z,98358.85
2018-06-03T02:23:27.947Z,98366.12
2018-06-03T02:25:56.186Z,98366.23
2018-06-03T02:28:24.501Z,98366.55
2018-06-03T02:30:52.746Z,98369.24
2018-06-03T02:33:21.765Z,98366.45
2018-06-03T02:35:50.013Z,98368.03
2018-06-03T02:38:19.040Z,98366.83
2018-06-03T02:40:47.288Z,98374.19
2018-06-03T02:43:16.309Z,98368.36
2018-06-03T02:45:44.565Z,98370.59
2018-06-03T02:48:13.585Z,98373.27
2018-06-03T02:50:41.842Z,98369.73
2018-06-03T02:53:10.114Z,98367.58
2018-06-03T02:55:39.126Z,98363.22
2018-06-03T02:58:07.367Z,98362.23
2018-06-03T03:00:36.401Z,98367.19
2018-06-03T03:03:04.646Z,98358.64
2018-06-03T03:05:33.665Z,98364.11
2018-06-03T03:08:01.910Z,98367.95
2018-06-03T03:10:30.934Z,98372.83
2018-06-03T03:12:59.185Z,98374.18
2018-06-03T03:15:28.205Z,98369.41
2018-06-03T03:17:56.462Z,98375.58
2018-06-03T03:20:24.718Z,98376.91
2018-06-03T03:22:53.729Z,98376.35
2018-06-03T03:25:21.985Z,98376.93
2018-06-03T03:27:51.000Z,98373.01
2018-06-03T03:30:19.260Z,98369.63
2018-06-03T03:32:48.324Z,98373.72
2018-06-03T03:35:16.572Z,98379.80
2018-06-03T03:37:44.829Z,98382.16
2018-06-03T03:40:13.076Z,98380.45
2018-06-03T03:42:42.103Z,98385.13
2018-06-03T03:45:10.342Z,98385.20
2018-06-03T03:47:39.364Z,98384.29
2018-06-03T03:50:07.629Z,98383.34
2018-06-03T03:52:35.877Z,98383.71
2018-06-03T03:55:04.132Z,98387.06
2018-06-03T03:57:32.390Z,98388.84
2018-06-03T04:00:00.636Z,98381.91
2018-06-03T04:02:29.584Z,98387.10
2018-06-03T04:04:57.833Z,98385.91
2018-06-03T04:07:26.094Z,98391.39
2018-06-03T04:09:54.335Z,98387.84
2018-06-03T04:12:23.373Z,98394.13
2018-06-03T04:14:51.621Z,98390.16
2018-06-03T04:17:19.866Z,98389.16
2018-06-03T04:19:48.121Z,98389.05
2018-06-03T04:22:55.600Z,98396.38
2018-06-03T04:25:24.773Z,98398.02
2018-06-03T04:27:53.948Z,98395.86
2018-06-03T04:30:22.944Z,98398.88
2018-06-03T04:32:52.133Z,98397.16
2018-06-03T04:35:21.305Z,98397.49
2018-06-03T04:37:50.477Z,98402.20
2018-06-03T04:40:19.641Z,98405.59
2018-06-03T04:42:48.809Z,98404.38
2018-06-03T04:45:17.982Z,98403.13
2018-06-03T04:47:47.136Z,98403.19
2018-06-03T04:50:16.329Z,98407.70
2018-06-03T04:52:45.489Z,98408.55
2018-06-03T04:55:14.942Z,98406.75
2018-06-03T04:57:44.117Z,98409.55
2018-06-03T05:00:13.278Z,98403.78
2018-06-03T05:02:42.470Z,98398.54
2018-06-03T05:05:11.704Z,98403.20
2018-06-03T05:07:40.832Z,98403.00
2018-06-03T05:10:10.014Z,98406.32
2018-06-03T05:12:39.185Z,98403.23
2018-06-03T05:15:08.952Z,98404.69
2018-06-03T05:17:38.121Z,98402.73
2018-06-03T05:20:07.461Z,98403.75
2018-06-03T05:22:36.627Z,98404.91
2018-06-03T05:25:05.808Z,98409.05
2018-06-03T05:27:34.984Z,98412.38
2018-06-03T05:30:04.157Z,98414.52
2018-06-03T05:32:33.416Z,98411.02
2018-06-03T05:35:02.588Z,98416.27
2018-06-03T05:37:31.764Z,98412.95
2018-06-03T05:40:00.929Z,98418.58
2018-06-03T05:42:30.133Z,98414.81
2018-06-03T05:44:59.272Z,98415.84
2018-06-03T05:47:28.228Z,98419.00
2018-06-03T05:49:57.423Z,98425.22
2018-06-03T05:52:26.637Z,98418.45
2018-06-03T05:54:55.869Z,98420.77
2018-06-03T05:57:25.087Z,98428.10
2018-06-03T05:59:54.493Z,98420.67
2018-06-03T06:02:23.693Z,98426.52
2018-06-03T06:04:52.900Z,98427.38
2018-06-03T06:07:23.212Z,98430.11
2018-06-03T06:09:52.406Z,98429.89
2018-06-03T06:12:21.605Z,98427.48
2018-06-03T06:14:50.798Z,98434.44
2018-06-03T06:17:20.120Z,98433.34
2018-06-03T06:19:49.316Z,98427.84
2018-06-03T06:22:18.536Z,98436.64
2018-06-03T06:24:47.736Z,98437.69
2018-06-03T06:27:16.949Z,98432.77
2018-06-03T06:29:46.165Z,98430.94
2018-06-03T06:32:15.868Z,98435.66
2018-06-03T06:34:45.087Z,98434.38
2018-06-03T06:37:14.289Z,98433.59
2018-06-03T06:39:43.493Z,98425.80
2018-06-03T06:42:12.692Z,98430.78
2018-06-03T06:44:41.897Z,98429.95
2018-06-03T06:47:11.095Z,98429.27
2018-06-03T06:49:40.285Z,98433.45
2018-06-03T06:52:09.515Z,98434.98
2018-06-03T06:54:38.722Z,98439.15
2018-06-03T06:57:07.909Z,98437.55
2018-06-03T06:59:37.124Z,98448.91
2018-06-03T07:02:06.295Z,98442.00
2018-06-03T07:04:35.467Z,98442.00
2018-06-03T07:07:04.642Z,98438.48
2018-06-03T07:09:33.814Z,98440.47
2018-06-03T07:12:02.977Z,98441.88
2018-06-03T07:14:32.178Z,98436.27
2018-06-03T07:17:01.337Z,98429.09
2018-06-03T07:19:30.516Z,98430.69
2018-06-03T07:21:59.676Z,98434.06
2018-06-03T07:24:28.852Z,98433.88
2018-06-03T07:26:58.017Z,98427.39
2018-06-03T07:29:27.188Z,98430.91
2018-06-03T07:31:56.370Z,98429.74
2018-06-03T07:34:25.548Z,98431.25
2018-06-03T07:36:54.708Z,98432.41
2018-06-03T07:39:23.878Z,98423.83
2018-06-03T07:41:53.056Z,98430.52
2018-06-03T07:44:22.213Z,98424.00
2018-06-03T07:46:51.401Z,98425.66
2018-06-03T07:49:20.583Z,98419.62
2018-06-03T07:51:49.760Z,98418.92
2018-06-03T07:54:18.938Z,98423.20
2018-06-03T07:56:48.121Z,98420.76
2018-06-03T07:59:17.303Z,98424.17
2018-06-03T08:01:46.472Z,98412.12
2018-06-03T08:04:15.652Z,98409.74
2018-06-03T08:06:44.821Z,98408.69
2018-06-03T08:09:13.989Z,98404.74
2018-06-03T08:11:43.173Z,98406.72
2018-06-03T08:14:12.397Z,98409.27
2018-06-03T08:16:41.582Z,98406.55
2018-06-03T08:19:10.755Z,98408.03
2018-06-03T08:21:39.930Z,98409.76
2018-06-03T08:24:09.106Z,98413.48
2018-06-03T08:26:38.278Z,98411.89
2018-06-03T08:29:07.449Z,98406.57
2018-06-03T08:31:36.617Z,98409.91
2018-06-03T08:34:05.815Z,98405.59
2018-06-03T08:36:35.037Z,98408.04
2018-06-03T08:39:05.887Z,98411.84
2018-06-03T08:41:35.059Z,98406.89
2018-06-03T08:44:04.021Z,98404.71
2018-06-03T08:46:33.187Z,98400.87
2018-06-03T08:49:02.364Z,98397.62
2018-06-03T08:51:31.534Z,98402.81
2018-06-03T08:54:00.710Z,98398.13
2018-06-03T08:56:29.873Z,98397.19
2018-06-03T08:58:59.068Z,98394.16
2018-06-03T09:01:28.273Z,98398.08
2018-06-03T09:03:57.472Z,98393.78
2018-06-03T09:06:26.672Z,98393.30
2018-06-03T09:08:55.876Z,98393.60
2018-06-03T09:11:25.092Z,98394.39
2018-06-03T09:13:54.289Z,98390.26
2018-06-03T09:16:23.485Z,98383.05
2018-06-03T09:18:52.892Z,98387.41
2018-06-03T09:21:22.184Z,98388.16
2018-06-03T09:23:51.392Z,98387.56
2018-06-03T09:26:20.585Z,98381.33
2018-06-03T09:28:49.776Z,98392.66
2018-06-03T09:31:18.968Z,98386.48
2018-06-03T09:33:50.793Z,98393.73
2018-06-03T09:36:19.994Z,98392.48
2018-06-03T09:38:49.195Z,98390.61
2018-06-03T09:41:18.721Z,98387.48
2018-06-03T09:43:48.025Z,98380.84
2018-06-03T09:46:17.201Z,98382.23
2018-06-03T09:48:46.442Z,98386.39
2018-06-03T09:51:15.559Z,98380.21
2018-06-03T09:53:44.717Z,98384.45
2018-06-03T09:56:13.897Z,98383.28
2018-06-03T09:58:43.070Z,98381.48
2018-06-03T10:01:12.261Z,98374.02
2018-06-03T10:03:41.430Z,98364.40
2018-06-03T10:06:11.594Z,98368.63
2018-06-03T10:08:40.765Z,98368.25
2018-06-03T10:11:09.957Z,98359.84
2018-06-03T10:13:39.126Z,98356.64
2018-06-03T10:16:08.307Z,98362.58
2018-06-03T10:18:37.478Z,98347.19
2018-06-03T10:21:06.675Z,98355.27
2018-06-03T10:23:35.846Z,98347.70
2018-06-03T10:26:05.092Z,98344.24
2018-06-03T10:28:34.258Z,98352.35
2018-06-03T10:31:03.425Z,98347.72
2018-06-03T10:33:32.597Z,98343.22
2018-06-03T10:36:01.807Z,98338.06
2018-06-03T10:38:30.977Z,98340.02
2018-06-03T10:41:00.158Z,98331.70
2018-06-03T10:43:29.321Z,98335.64
2018-06-03T10:45:58.870Z,98331.32
2018-06-03T10:48:28.025Z,98330.34
2018-06-03T10:50:57.193Z,98327.27
2018-06-03T10:53:26.369Z,98329.55
2018-06-03T10:55:55.553Z,98334.14
2018-06-03T10:58:24.727Z,98324.55
2018-06-03T11:00:53.936Z,98324.37
2018-06-03T11:03:23.118Z,98314.84
2018-06-03T11:05:52.281Z,98319.91
2018-06-03T11:08:21.450Z,98315.63
2018-06-03T11:10:50.630Z,98314.08
2018-06-03T11:13:19.802Z,98322.27
2018-06-03T11:15:48.965Z,98312.56
2018-06-03T11:18:18.143Z,98316.11
2018-06-03T11:20:47.312Z,98320.90
2018-06-03T11:23:16.488Z,98316.84
2018-06-03T11:25:45.677Z,98308.94
2018-06-03T11:28:14.889Z,98306.53
2018-06-03T11:30:43.840Z,98304.69
2018-06-03T11:33:13.041Z,98299.27
2018-06-03T11:35:42.236Z,98297.73
2018-06-03T11:38:11.433Z,98298.72
2018-06-03T11:40:40.643Z,98297.22
2018-06-03T11:43:09.832Z,98292.91
2018-06-03T11:45:39.045Z,98286.00
2018-06-03T11:48:08.241Z,98293.49
2018-06-03T11:50:37.518Z,98289.73
2018-06-03T11:53:06.710Z,98282.02
2018-06-03T11:55:35.918Z,98277.70
2018-06-03T11:58:54.708Z,98271.15
2018-06-03T12:01:24.425Z,98269.02
2018-06-03T12:03:53.360Z,98263.30
2018-06-03T12:06:22.525Z,98265.02
2018-06-03T12:08:58.277Z,98259.04
2018-06-03T12:11:27.445Z,98265.39
2018-06-03T12:13:56.626Z,98259.27
2018-06-03T12:16:25.792Z,98257.70
2018-06-03T12:18:54.977Z,98254.53
2018-06-03T12:21:24.164Z,98252.39
2018-06-03T12:23:53.350Z,98259.95
2018-06-03T12:26:22.522Z,98251.77
2018-06-03T12:28:51.690Z,98247.22
2018-06-03T12:31:20.854Z,98239.77
2018-06-03T12:33:50.017Z,98238.39
2018-06-03T12:36:19.191Z,98244.64
2018-06-03T12:38:48.346Z,98239.22
2018-06-03T12:41:17.691Z,98239.69
2018-06-03T12:43:46.872Z,98240.77
2018-06-03T12:46:16.063Z,98233.59
2018-06-03T12:48:45.217Z,98231.48
2018-06-03T12:51:14.177Z,98229.23
2018-06-03T12:53:43.346Z,98226.63
2018-06-03T12:56:12.507Z,98229.59
2018-06-03T12:58:41.721Z,98225.22
2018-06-03T13:01:10.909Z,98214.61
2018-06-03T13:03:40.102Z,98210.36
2018-06-03T13:06:09.297Z,98205.42
2018-06-03T13:08:38.261Z,98209.42
2018-06-03T13:11:07.496Z,98205.70
2018-06-03T13:13:36.697Z,98200.83
2018-06-03T13:16:05.898Z,98198.31
2018-06-03T13:18:35.133Z,98197.36
2018-06-03T13:21:04.306Z,98200.22
2018-06-03T13:23:33.521Z,98194.30
2018-06-03T13:26:02.712Z,98197.35
2018-06-03T13:28:31.918Z,98192.16
2018-06-03T13:31:01.112Z,98185.55
2018-06-03T13:33:30.304Z,98182.27
2018-06-03T13:36:00.228Z,98176.70
2018-06-03T13:38:29.445Z,98171.98
2018-06-03T13:40:58.826Z,98170.33
2018-06-03T13:43:28.039Z,98164.80
2018-06-03T13:45:57.256Z,98164.20
2018-06-03T13:48:29.318Z,98154.36
2018-06-03T13:50:58.752Z,98153.09
2018-06-03T13:53:28.512Z,98152.33
2018-06-03T13:55:58.570Z,98143.77
2018-06-03T13:58:28.192Z,98139.92
2018-06-03T14:00:57.436Z,98139.28
2018-06-03T14:03:26.649Z,98128.95
2018-06-03T14:05:55.870Z,98125.40
2018-06-03T14:08:31.436Z,98117.47
2018-06-03T14:11:00.682Z,98125.75
2018-06-03T14:13:30.777Z,98127.69
2018-06-03T14:16:01.149Z,98126.99
2018-06-03T14:18:31.926Z,98116.96
2018-06-03T14:21:03.136Z,98118.58
2018-06-03T14:23:34.241Z,98109.52
2018-06-03T14:26:04.877Z,98108.77
2018-06-03T14:28:36.245Z,98103.16
2018-06-03T14:31:07.094Z,98104.45
2018-06-03T14:33:37.078Z,98098.42
2018-06-03T14:36:06.988Z,98101.63
2018-06-03T14:38:36.624Z,98103.17
2018-06-03T14:41:06.612Z,98096.83
2018-06-03T14:43:36.243Z,98090.47
2018-06-03T14:46:06.222Z,98093.30
2018-06-03T14:48:35.920Z,98086.04
2018-06-03T14:51:05.583Z,98086.74
2018-06-03T14:53:35.059Z,98090.27
2018-06-03T14:56:05.115Z,98079.20
2018-06-03T14:58:34.686Z,98078.06
2018-06-03T15:01:04.029Z,98077.80
2018-06-03T15:03:33.376Z,98069.88
2018-06-03T15:06:02.789Z,98068.08
2018-06-03T15:08:32.182Z,98067.85
2018-06-03T15:11:01.516Z,98070.27
2018-06-03T15:13:30.882Z,98061.61
2018-06-03T15:16:00.245Z,98063.89
2018-06-03T15:18:29.674Z,98066.51
2018-06-03T15:20:59.252Z,98058.69
2018-06-03T15:23:28.698Z,98055.50
2018-06-03T15:25:58.207Z,98053.86
2018-06-03T15:28:27.722Z,98054.50
2018-06-03T15:30:56.932Z,98044.73
2018-06-03T15:33:26.470Z,98044.91
2018-06-03T15:35:56.916Z,98042.73
2018-06-03T15:38:27.114Z,98046.82
2018-06-03T15:40:56.416Z,98044.30
2018-06-03T15:43:25.743Z,98047.06
2018-06-03T15:45:55.078Z,98045.64
2018-06-03T15:48:24.382Z,98051.76
2018-06-03T15:50:53.787Z,98040.70
2018-06-03T15:53:23.072Z,98040.64
2018-06-03T15:55:52.385Z,98036.38
2018-06-03T15:58:21.740Z,98037.44
2018-06-03T16:00:51.124Z,98032.11
2018-06-03T16:03:20.223Z,98028.83
2018-06-03T16:05:49.322Z,98025.17
2018-06-03T16:08:18.708Z,98016.08
2018-06-03T16:10:48.088Z,98018.91
2018-06-03T16:13:17.431Z,98015.75
2018-06-03T16:15:46.782Z,98013.40
2018-06-03T16:18:16.145Z,98006.23
2018-06-03T16:20:45.486Z,98008.64
2018-06-03T16:23:14.819Z,98000.61
2018-06-03T16:25:44.201Z,98005.56
2018-06-03T16:28:13.598Z,98000.58
2018-06-03T16:30:42.999Z,97997.66
2018-06-03T16:33:12.364Z,97995.39
2018-06-03T16:35:41.649Z,97993.36
2018-06-03T16:38:10.973Z,97987.97
2018-06-03T16:40:40.246Z,97995.38
2018-06-03T16:43:09.591Z,97989.58
2018-06-03T16:45:38.931Z,97989.20
2018-06-03T16:48:08.191Z,97989.77
2018-06-03T16:50:37.436Z,97989.55
2018-06-03T16:53:06.745Z,97994.37
2018-06-03T16:55:35.995Z,97991.50
2018-06-03T16:58:05.294Z,97990.53
2018-06-03T17:00:34.570Z,97994.97
2018-06-03T17:03:03.871Z,97992.01
2018-06-03T17:05:33.212Z,97987.89
2018-06-03T17:08:02.693Z,97990.31
2018-06-03T17:10:31.980Z,97990.55
2018-06-03T17:13:01.241Z,97988.52
2018-06-03T17:15:30.457Z,97989.27
2018-06-03T17:17:59.685Z,97993.73
2018-06-03T17:20:28.988Z,97992.84
2018-06-03T17:22:58.298Z,97993.55
2018-06-03T17:25:27.515Z,97985.60
2018-06-03T17:27:56.792Z,97983.67
2018-06-03T17:30:26.175Z,97977.64
2018-06-03T17:32:55.438Z,97974.79
2018-06-03T17:35:24.660Z,97975.18
2018-06-03T17:37:53.898Z,97971.96
2018-06-03T17:40:23.143Z,97970.17
2018-06-03T17:42:52.301Z,97966.09
2018-06-03T17:45:21.374Z,97962.45
2018-06-03T17:47:50.586Z,97963.55
2018-06-03T17:50:19.821Z,97962.95
2018-06-03T17:52:49.112Z,97965.27
2018-06-03T17:55:18.291Z,97964.63
2018-06-03T17:57:47.620Z,97966.83
2018-06-03T18:00:16.836Z,97959.00
2018-06-03T18:02:46.005Z,97963.55
2018-06-03T18:05:15.201Z,97962.33
2018-06-03T18:07:44.394Z,97969.20
2018-06-03T18:10:13.604Z,97963.85
2018-06-03T18:12:42.814Z,97967.20
2018-06-03T18:15:12.060Z,97963.32
2018-06-03T18:17:41.325Z,97965.41
2018-06-03T18:20:10.515Z,97969.33
2018-06-03T18:22:39.821Z,97962.81
2018-06-03T18:25:09.019Z,97964.16
2018-06-03T18:27:39.085Z,97965.04
2018-06-03T18:30:08.075Z,97965.90
2018-06-03T18:32:37.269Z,97971.47
2018-06-03T18:35:06.544Z,97974.99
2018-06-03T18:37:35.771Z,97974.59
2018-06-03T18:40:05.158Z,97969.78
2018-06-03T18:42:34.619Z,97973.48
2018-06-03T18:45:03.861Z,97977.18
2018-06-03T18:47:33.087Z,97978.22
2018-06-03T18:50:02.400Z,97975.42
2018-06-03T18:52:31.651Z,97978.16
2018-06-03T18:55:00.905Z,97978.48
2018-06-03T18:57:30.156Z,97976.27
2018-06-03T18:59:59.645Z,97974.42
2018-06-03T19:02:28.929Z,97974.85
2018-06-03T19:04:58.269Z,97975.34
2018-06-03T19:07:27.463Z,97974.56
2018-06-03T19:09:56.805Z,97977.66
2018-06-03T19:12:27.293Z,97979.82
2018-06-03T19:14:56.499Z,97978.11
2018-06-03T19:17:25.634Z,97974.57
2018-06-03T19:19:54.960Z,97980.13
2018-06-03T19:22:24.350Z,97985.36
2018-06-03T19:24:53.667Z,97983.18
2018-06-03T19:27:23.057Z,97983.94
2018-06-03T19:29:52.401Z,97984.50
2018-06-03T19:32:21.580Z,97983.30
2018-06-03T19:34:50.939Z,97976.11
2018-06-03T19:37:20.254Z,97978.71
2018-06-03T19:39:49.525Z,97976.88
2018-06-03T19:42:18.782Z,97982.30
2018-06-03T19:44:48.115Z,97979.78
2018-06-03T19:47:17.531Z,97982.81
2018-06-03T19:49:48.266Z,97984.05
2018-06-03T19:52:17.609Z,97988.92
2018-06-03T19:54:46.956Z,97980.58
2018-06-03T19:57:16.387Z,97986.31
2018-06-03T19:59:45.905Z,97988.13
2018-06-03T20:02:15.291Z,97987.14
2018-06-03T20:04:44.639Z,97984.75
2018-06-03T20:07:13.738Z,97986.71
2018-06-03T20:09:43.324Z,97990.80
2018-06-03T20:12:12.787Z,97995.58
2018-06-03T20:14:42.209Z,97997.02
2018-06-03T20:17:11.596Z,97996.59
2018-06-03T20:19:41.023Z,97995.92
2018-06-03T20:22:10.506Z,97997.86
2018-06-03T20:24:39.863Z,97997.97
2018-06-03T20:27:09.148Z,97997.36
2018-06-03T20:29:38.345Z,97997.72
2018-06-03T20:32:07.564Z,97998.64
2018-06-03T20:34:36.821Z,98000.80
2018-06-03T20:37:06.021Z,98001.20
2018-06-03T20:39:35.265Z,98003.23
2018-06-03T20:42:04.465Z,98003.46
2018-06-03T20:44:33.705Z,98002.95
2018-06-03T20:47:02.992Z,98004.15
2018-06-03T20:49:32.353Z,98008.73
2018-06-03T20:52:01.658Z,98009.93
2018-06-03T20:54:31.083Z,98010.22
2018-06-03T20:57:00.323Z,98012.83
2018-06-03T20:59:29.700Z,98012.42
2018-06-03T21:01:58.913Z,98012.02
2018-06-03T21:04:28.293Z,98011.14
2018-06-03T21:06:57.501Z,98011.37
2018-06-03T21:09:26.852Z,98014.45
2018-06-03T21:11:55.992Z,98013.03
2018-06-03T21:14:25.220Z,98014.72
2018-06-03T21:16:55.174Z,98016.61
2018-06-03T21:19:24.421Z,98018.76
2018-06-03T21:21:53.738Z,98015.52
2018-06-03T21:24:22.938Z,98015.88
2018-06-03T21:26:52.326Z,98018.17
2018-06-03T21:29:21.617Z,98023.64
2018-06-03T21:31:50.921Z,98017.15
2018-06-03T21:34:20.215Z,98015.47
2018-06-03T21:36:49.527Z,98007.91
2018-06-03T21:39:18.798Z,98015.79
2018-06-03T21:41:48.074Z,98010.58
2018-06-03T21:44:17.294Z,98010.71
2018-06-03T21:46:46.605Z,98012.37
2018-06-03T21:49:16.808Z,98017.16
2018-06-03T21:51:46.192Z,98013.58
2018-06-03T21:54:15.409Z,98017.34
2018-06-03T21:56:44.740Z,98016.38
2018-06-03T21:59:13.950Z,98011.22
2018-06-03T22:01:43.199Z,98018.56
2018-06-03T22:04:12.417Z,98014.50
2018-06-03T22:06:41.621Z,98015.47
2018-06-03T22:09:11.022Z,98021.25
2018-06-03T22:11:40.225Z,98024.09
2018-06-03T22:14:09.428Z,98023.45
2018-06-03T22:16:38.636Z,98019.97
2018-06-03T22:19:07.937Z,98018.50
2018-06-03T22:21:37.125Z,98023.09
2018-06-03T22:24:06.335Z,98021.06
2018-06-03T22:26:35.537Z,98024.66
2018-06-03T22:29:04.798Z,98017.20
2018-06-03T22:31:33.993Z,98016.19
2018-06-03T22:34:03.186Z,98016.32
2018-06-03T22:36:32.404Z,98015.72
2018-06-03T22:39:01.609Z,98015.53
2018-06-03T22:41:30.818Z,98012.98
2018-06-03T22:44:00.021Z,98013.08
2018-06-03T22:46:29.234Z,98017.59
2018-06-03T22:48:58.168Z,98015.56
2018-06-03T22:51:27.363Z,98013.66
2018-06-03T22:53:56.557Z,98011.83
2018-06-03T22:56:26.367Z,98011.25
2018-06-03T22:58:55.578Z,98010.84
2018-06-03T23:01:24.767Z,98010.19
2018-06-03T23:03:53.985Z,98012.63
2018-06-03T23:06:23.173Z,98014.42
2018-06-03T23:08:52.361Z,98011.84
2018-06-03T23:11:21.535Z,98009.74
2018-06-03T23:13:50.720Z,98013.13
2018-06-03T23:16:19.884Z,98010.28
2018-06-03T23:18:49.068Z,98002.03
2018-06-03T23:21:18.265Z,97997.31
2018-06-03T23:23:47.441Z,97993.75
2018-06-03T23:26:16.621Z,97994.83
2018-06-03T23:28:45.811Z,97989.44
2018-06-03T23:31:14.981Z,97982.17
2018-06-03T23:33:44.170Z,97984.09
2018-06-03T23:36:13.341Z,97981.38
2018-06-03T23:38:42.512Z,97975.92
2018-06-03T23:41:11.690Z,97976.00
2018-06-03T23:43:41.503Z,97975.12
2018-06-03T23:46:10.665Z,97971.88
2018-06-03T23:48:39.844Z,97980.07
2018-06-03T23:51:09.026Z,97974.01
2018-06-03T23:53:38.203Z,97963.14
2018-06-03T23:56:07.382Z,97970.01
2018-06-03T23:58:36.567Z,97968.28
